sensor_id;sensor_type;location;lat;lon;timestamp;P1;durP1;ratioP1;P2;durP2;ratioP2
33022;SDS011;19390;51.460;5.710;2022-11-20T00:01:18;22.02;;;14.43;;
33022;SDS011;19390;51.460;5.710;2022-11-20T00:03:48;22.88;;;14.75;;
33022;SDS011;19390;51.460;5.710;2022-11-20T00:06:15;25.17;;;15.13;;
33022;SDS011;19390;51.460;5.710;2022-11-20T00:08:42;25.67;;;15.27;;
33022;SDS011;19390;51.460;5.710;2022-11-20T00:11:12;26.15;;;15.70;;
33022;SDS011;19390;51.460;5.710;2022-11-20T00:13:40;22.40;;;14.65;;
33022;SDS011;19390;51.460;5.710;2022-11-20T00:16:06;26.45;;;15.35;;
33022;SDS011;19390;51.460;5.710;2022-11-20T00:18:33;25.52;;;16.55;;
33022;SDS011;19390;51.460;5.710;2022-11-20T00:21:03;24.83;;;15.38;;
33022;SDS011;19390;51.460;5.710;2022-11-20T00:23:30;31.45;;;16.05;;
33022;SDS011;19390;51.460;5.710;2022-11-20T00:25:55;23.83;;;14.80;;
33022;SDS011;19390;51.460;5.710;2022-11-20T00:28:21;24.20;;;14.93;;
33022;SDS011;19390;51.460;5.710;2022-11-20T00:30:47;25.98;;;15.60;;
33022;SDS011;19390;51.460;5.710;2022-11-20T00:33:13;30.45;;;16.90;;
33022;SDS011;19390;51.460;5.710;2022-11-20T00:35:38;25.63;;;17.02;;
33022;SDS011;19390;51.460;5.710;2022-11-20T00:38:04;29.73;;;17.27;;
33022;SDS011;19390;51.460;5.710;2022-11-20T00:40:29;28.55;;;17.33;;
33022;SDS011;19390;51.460;5.710;2022-11-20T00:42:55;27.17;;;16.92;;
33022;SDS011;19390;51.460;5.710;2022-11-20T00:45:21;26.38;;;16.63;;
33022;SDS011;19390;51.460;5.710;2022-11-20T00:47:46;27.35;;;16.65;;
33022;SDS011;19390;51.460;5.710;2022-11-20T00:50:12;30.73;;;17.70;;
33022;SDS011;19390;51.460;5.710;2022-11-20T00:52:37;26.77;;;16.90;;
33022;SDS011;19390;51.460;5.710;2022-11-20T00:55:03;28.50;;;16.77;;
33022;SDS011;19390;51.460;5.710;2022-11-20T00:57:29;29.33;;;17.80;;
33022;SDS011;19390;51.460;5.710;2022-11-20T00:59:55;27.65;;;16.55;;
33022;SDS011;19390;51.460;5.710;2022-11-20T01:02:20;26.23;;;16.23;;
33022;SDS011;19390;51.460;5.710;2022-11-20T01:04:46;28.17;;;17.00;;
33022;SDS011;19390;51.460;5.710;2022-11-20T01:07:12;27.23;;;17.85;;
33022;SDS011;19390;51.460;5.710;2022-11-20T01:09:37;26.02;;;16.35;;
33022;SDS011;19390;51.460;5.710;2022-11-20T01:12:03;29.08;;;17.73;;
33022;SDS011;19390;51.460;5.710;2022-11-20T01:14:29;30.45;;;17.10;;
33022;SDS011;19390;51.460;5.710;2022-11-20T01:16:54;29.27;;;18.02;;
33022;SDS011;19390;51.460;5.710;2022-11-20T01:19:21;31.00;;;18.35;;
33022;SDS011;19390;51.460;5.710;2022-11-20T01:21:52;32.22;;;18.02;;
33022;SDS011;19390;51.460;5.710;2022-11-20T01:24:19;31.00;;;18.10;;
33022;SDS011;19390;51.460;5.710;2022-11-20T01:26:50;30.33;;;17.25;;
33022;SDS011;19390;51.460;5.710;2022-11-20T01:29:20;30.70;;;18.10;;
33022;SDS011;19390;51.460;5.710;2022-11-20T01:34:19;29.83;;;17.67;;
33022;SDS011;19390;51.460;5.710;2022-11-20T01:36:45;33.90;;;19.30;;
33022;SDS011;19390;51.460;5.710;2022-11-20T01:39:18;29.58;;;17.92;;
33022;SDS011;19390;51.460;5.710;2022-11-20T01:41:46;26.50;;;16.00;;
33022;SDS011;19390;51.460;5.710;2022-11-20T01:47:17;28.85;;;17.85;;
33022;SDS011;19390;51.460;5.710;2022-11-20T01:52:20;33.33;;;18.05;;
33022;SDS011;19390;51.460;5.710;2022-11-20T01:54:53;29.23;;;18.00;;
33022;SDS011;19390;51.460;5.710;2022-11-20T01:57:23;31.08;;;18.38;;
33022;SDS011;19390;51.460;5.710;2022-11-20T01:59:54;29.90;;;18.63;;
33022;SDS011;19390;51.460;5.710;2022-11-20T02:02:26;32.20;;;18.52;;
33022;SDS011;19390;51.460;5.710;2022-11-20T02:04:52;28.85;;;17.58;;
33022;SDS011;19390;51.460;5.710;2022-11-20T02:07:22;28.45;;;17.90;;
33022;SDS011;19390;51.460;5.710;2022-11-20T02:09:48;33.33;;;19.73;;
33022;SDS011;19390;51.460;5.710;2022-11-20T02:12:14;33.22;;;18.90;;
33022;SDS011;19390;51.460;5.710;2022-11-20T02:15:00;29.67;;;18.52;;
33022;SDS011;19390;51.460;5.710;2022-11-20T02:17:26;27.50;;;17.77;;
33022;SDS011;19390;51.460;5.710;2022-11-20T02:19:52;30.75;;;17.85;;
33022;SDS011;19390;51.460;5.710;2022-11-20T02:22:28;33.90;;;19.15;;
33022;SDS011;19390;51.460;5.710;2022-11-20T02:25:00;32.70;;;19.15;;
33022;SDS011;19390;51.460;5.710;2022-11-20T02:27:28;29.30;;;17.98;;
33022;SDS011;19390;51.460;5.710;2022-11-20T02:29:57;31.65;;;18.50;;
33022;SDS011;19390;51.460;5.710;2022-11-20T02:32:32;32.30;;;18.48;;
33022;SDS011;19390;51.460;5.710;2022-11-20T02:35:35;36.03;;;19.85;;
33022;SDS011;19390;51.460;5.710;2022-11-20T02:37:55;32.13;;;18.73;;
33022;SDS011;19390;51.460;5.710;2022-11-20T02:40:22;30.63;;;18.60;;
33022;SDS011;19390;51.460;5.710;2022-11-20T02:42:51;30.13;;;18.55;;
33022;SDS011;19390;51.460;5.710;2022-11-20T02:45:18;32.25;;;19.90;;
33022;SDS011;19390;51.460;5.710;2022-11-20T02:47:43;27.98;;;17.02;;
33022;SDS011;19390;51.460;5.710;2022-11-20T02:50:09;29.83;;;18.25;;
33022;SDS011;19390;51.460;5.710;2022-11-20T02:52:35;31.13;;;18.40;;
33022;SDS011;19390;51.460;5.710;2022-11-20T02:55:01;34.20;;;19.88;;
33022;SDS011;19390;51.460;5.710;2022-11-20T02:57:26;28.00;;;17.50;;
33022;SDS011;19390;51.460;5.710;2022-11-20T02:59:52;28.70;;;16.90;;
33022;SDS011;19390;51.460;5.710;2022-11-20T03:02:18;34.58;;;19.33;;
33022;SDS011;19390;51.460;5.710;2022-11-20T03:04:44;30.65;;;18.23;;
33022;SDS011;19390;51.460;5.710;2022-11-20T03:07:10;31.25;;;17.40;;
33022;SDS011;19390;51.460;5.710;2022-11-20T03:09:35;35.63;;;19.20;;
33022;SDS011;19390;51.460;5.710;2022-11-20T03:12:01;33.63;;;19.38;;
33022;SDS011;19390;51.460;5.710;2022-11-20T03:14:27;34.80;;;19.33;;
33022;SDS011;19390;51.460;5.710;2022-11-20T03:16:53;33.25;;;21.30;;
33022;SDS011;19390;51.460;5.710;2022-11-20T03:19:19;31.48;;;19.00;;
33022;SDS011;19390;51.460;5.710;2022-11-20T03:21:45;35.58;;;19.42;;
33022;SDS011;19390;51.460;5.710;2022-11-20T03:24:11;32.00;;;18.75;;
33022;SDS011;19390;51.460;5.710;2022-11-20T03:26:37;30.58;;;19.17;;
33022;SDS011;19390;51.460;5.710;2022-11-20T03:29:04;33.53;;;19.73;;
33022;SDS011;19390;51.460;5.710;2022-11-20T03:31:31;32.92;;;20.05;;
33022;SDS011;19390;51.460;5.710;2022-11-20T03:33:59;30.67;;;18.63;;
33022;SDS011;19390;51.460;5.710;2022-11-20T03:36:25;31.52;;;18.55;;
33022;SDS011;19390;51.460;5.710;2022-11-20T03:38:52;31.67;;;19.15;;
33022;SDS011;19390;51.460;5.710;2022-11-20T03:41:20;33.60;;;20.45;;
33022;SDS011;19390;51.460;5.710;2022-11-20T03:43:48;32.85;;;19.67;;
33022;SDS011;19390;51.460;5.710;2022-11-20T03:46:18;32.10;;;19.75;;
33022;SDS011;19390;51.460;5.710;2022-11-20T03:48:44;35.75;;;20.00;;
33022;SDS011;19390;51.460;5.710;2022-11-20T03:53:47;31.70;;;18.88;;
33022;SDS011;19390;51.460;5.710;2022-11-20T03:56:14;33.83;;;19.48;;
33022;SDS011;19390;51.460;5.710;2022-11-20T03:58:41;29.80;;;18.85;;
33022;SDS011;19390;51.460;5.710;2022-11-20T04:01:08;29.90;;;18.90;;
33022;SDS011;19390;51.460;5.710;2022-11-20T04:03:36;33.30;;;20.02;;
33022;SDS011;19390;51.460;5.710;2022-11-20T04:06:06;30.98;;;19.83;;
33022;SDS011;19390;51.460;5.710;2022-11-20T04:08:35;29.25;;;18.45;;
33022;SDS011;19390;51.460;5.710;2022-11-20T04:11:11;30.50;;;18.65;;
33022;SDS011;19390;51.460;5.710;2022-11-20T04:13:50;28.63;;;17.85;;
33022;SDS011;19390;51.460;5.710;2022-11-20T04:16:18;26.30;;;17.50;;
33022;SDS011;19390;51.460;5.710;2022-11-20T04:18:44;31.80;;;19.08;;
33022;SDS011;19390;51.460;5.710;2022-11-20T04:21:10;33.85;;;19.33;;
33022;SDS011;19390;51.460;5.710;2022-11-20T04:23:36;30.00;;;18.30;;
33022;SDS011;19390;51.460;5.710;2022-11-20T04:26:06;27.45;;;18.17;;
33022;SDS011;19390;51.460;5.710;2022-11-20T04:28:33;32.78;;;18.95;;
33022;SDS011;19390;51.460;5.710;2022-11-20T04:31:04;33.30;;;19.17;;
33022;SDS011;19390;51.460;5.710;2022-11-20T04:33:31;29.10;;;17.60;;
33022;SDS011;19390;51.460;5.710;2022-11-20T04:36:07;35.30;;;19.65;;
33022;SDS011;19390;51.460;5.710;2022-11-20T04:38:36;32.13;;;19.23;;
33022;SDS011;19390;51.460;5.710;2022-11-20T04:41:04;34.42;;;19.42;;
33022;SDS011;19390;51.460;5.710;2022-11-20T04:43:31;29.85;;;18.17;;
33022;SDS011;19390;51.460;5.710;2022-11-20T04:45:57;29.65;;;18.35;;
33022;SDS011;19390;51.460;5.710;2022-11-20T04:48:24;29.85;;;17.80;;
33022;SDS011;19390;51.460;5.710;2022-11-20T04:50:51;28.67;;;17.17;;
33022;SDS011;19390;51.460;5.710;2022-11-20T04:53:17;35.10;;;18.63;;
33022;SDS011;19390;51.460;5.710;2022-11-20T04:55:44;32.00;;;18.67;;
33022;SDS011;19390;51.460;5.710;2022-11-20T04:58:10;30.27;;;17.73;;
33022;SDS011;19390;51.460;5.710;2022-11-20T05:00:35;31.10;;;18.90;;
33022;SDS011;19390;51.460;5.710;2022-11-20T05:03:01;34.45;;;20.27;;
33022;SDS011;19390;51.460;5.710;2022-11-20T05:05:27;30.13;;;18.42;;
33022;SDS011;19390;51.460;5.710;2022-11-20T05:07:53;37.22;;;21.13;;
33022;SDS011;19390;51.460;5.710;2022-11-20T05:10:20;32.42;;;19.63;;
33022;SDS011;19390;51.460;5.710;2022-11-20T05:12:46;34.67;;;19.17;;
33022;SDS011;19390;51.460;5.710;2022-11-20T05:15:12;35.63;;;18.70;;
33022;SDS011;19390;51.460;5.710;2022-11-20T05:17:37;32.80;;;19.92;;
33022;SDS011;19390;51.460;5.710;2022-11-20T05:20:03;34.97;;;19.65;;
33022;SDS011;19390;51.460;5.710;2022-11-20T05:22:29;35.70;;;19.60;;
33022;SDS011;19390;51.460;5.710;2022-11-20T05:24:54;37.58;;;20.02;;
33022;SDS011;19390;51.460;5.710;2022-11-20T05:27:20;32.97;;;18.58;;
33022;SDS011;19390;51.460;5.710;2022-11-20T05:29:46;33.78;;;19.55;;
33022;SDS011;19390;51.460;5.710;2022-11-20T05:32:11;34.80;;;19.05;;
33022;SDS011;19390;51.460;5.710;2022-11-20T05:34:37;32.40;;;18.50;;
33022;SDS011;19390;51.460;5.710;2022-11-20T05:37:02;35.60;;;19.33;;
33022;SDS011;19390;51.460;5.710;2022-11-20T05:39:28;33.85;;;19.85;;
33022;SDS011;19390;51.460;5.710;2022-11-20T05:41:54;32.67;;;19.00;;
33022;SDS011;19390;51.460;5.710;2022-11-20T05:44:38;32.13;;;18.80;;
33022;SDS011;19390;51.460;5.710;2022-11-20T05:47:04;29.08;;;18.25;;
33022;SDS011;19390;51.460;5.710;2022-11-20T05:49:30;30.83;;;18.80;;
33022;SDS011;19390;51.460;5.710;2022-11-20T05:51:55;35.28;;;20.52;;
33022;SDS011;19390;51.460;5.710;2022-11-20T05:54:21;31.63;;;18.73;;
33022;SDS011;19390;51.460;5.710;2022-11-20T05:56:47;32.08;;;19.23;;
33022;SDS011;19390;51.460;5.710;2022-11-20T05:59:12;38.90;;;20.27;;
33022;SDS011;19390;51.460;5.710;2022-11-20T06:01:38;36.50;;;20.75;;
33022;SDS011;19390;51.460;5.710;2022-11-20T06:04:03;35.72;;;21.33;;
33022;SDS011;19390;51.460;5.710;2022-11-20T06:06:29;32.33;;;19.42;;
33022;SDS011;19390;51.460;5.710;2022-11-20T06:08:55;31.98;;;19.95;;
33022;SDS011;19390;51.460;5.710;2022-11-20T06:11:21;31.05;;;19.05;;
33022;SDS011;19390;51.460;5.710;2022-11-20T06:13:46;34.55;;;20.52;;
33022;SDS011;19390;51.460;5.710;2022-11-20T06:16:14;31.05;;;19.17;;
33022;SDS011;19390;51.460;5.710;2022-11-20T06:18:42;33.05;;;18.45;;
33022;SDS011;19390;51.460;5.710;2022-11-20T06:21:09;30.92;;;19.50;;
33022;SDS011;19390;51.460;5.710;2022-11-20T06:23:39;29.75;;;18.45;;
33022;SDS011;19390;51.460;5.710;2022-11-20T06:26:09;34.10;;;19.50;;
33022;SDS011;19390;51.460;5.710;2022-11-20T06:28:40;31.67;;;19.88;;
33022;SDS011;19390;51.460;5.710;2022-11-20T06:31:06;32.13;;;19.20;;
33022;SDS011;19390;51.460;5.710;2022-11-20T06:33:35;31.05;;;19.33;;
33022;SDS011;19390;51.460;5.710;2022-11-20T06:36:01;30.70;;;18.98;;
33022;SDS011;19390;51.460;5.710;2022-11-20T06:38:27;31.00;;;18.40;;
33022;SDS011;19390;51.460;5.710;2022-11-20T06:40:53;33.05;;;18.35;;
33022;SDS011;19390;51.460;5.710;2022-11-20T06:43:20;30.15;;;18.38;;
33022;SDS011;19390;51.460;5.710;2022-11-20T06:45:45;32.53;;;19.13;;
33022;SDS011;19390;51.460;5.710;2022-11-20T06:48:11;32.13;;;18.67;;
33022;SDS011;19390;51.460;5.710;2022-11-20T06:50:37;31.75;;;19.23;;
33022;SDS011;19390;51.460;5.710;2022-11-20T06:53:03;37.00;;;19.73;;
33022;SDS011;19390;51.460;5.710;2022-11-20T06:55:29;31.35;;;18.70;;
33022;SDS011;19390;51.460;5.710;2022-11-20T06:57:56;35.17;;;19.58;;
33022;SDS011;19390;51.460;5.710;2022-11-20T07:00:22;35.20;;;19.25;;
33022;SDS011;19390;51.460;5.710;2022-11-20T07:02:47;34.00;;;18.45;;
33022;SDS011;19390;51.460;5.710;2022-11-20T07:05:13;29.42;;;18.02;;
33022;SDS011;19390;51.460;5.710;2022-11-20T07:07:39;30.55;;;17.88;;
33022;SDS011;19390;51.460;5.710;2022-11-20T07:10:05;32.13;;;18.98;;
33022;SDS011;19390;51.460;5.710;2022-11-20T07:12:30;31.65;;;19.23;;
33022;SDS011;19390;51.460;5.710;2022-11-20T07:14:56;32.40;;;20.13;;
33022;SDS011;19390;51.460;5.710;2022-11-20T07:17:22;39.42;;;24.42;;
33022;SDS011;19390;51.460;5.710;2022-11-20T07:19:47;33.95;;;18.85;;
33022;SDS011;19390;51.460;5.710;2022-11-20T07:22:13;29.77;;;18.98;;
33022;SDS011;19390;51.460;5.710;2022-11-20T07:24:39;27.30;;;17.88;;
33022;SDS011;19390;51.460;5.710;2022-11-20T07:27:04;35.22;;;21.30;;
33022;SDS011;19390;51.460;5.710;2022-11-20T07:29:30;33.13;;;18.98;;
33022;SDS011;19390;51.460;5.710;2022-11-20T07:31:57;36.50;;;20.15;;
33022;SDS011;19390;51.460;5.710;2022-11-20T07:34:22;32.25;;;18.67;;
33022;SDS011;19390;51.460;5.710;2022-11-20T07:36:48;33.40;;;20.35;;
33022;SDS011;19390;51.460;5.710;2022-11-20T07:39:14;33.83;;;19.92;;
33022;SDS011;19390;51.460;5.710;2022-11-20T07:41:39;32.50;;;18.17;;
33022;SDS011;19390;51.460;5.710;2022-11-20T07:44:05;49.42;;;28.65;;
33022;SDS011;19390;51.460;5.710;2022-11-20T07:46:31;31.50;;;18.33;;
33022;SDS011;19390;51.460;5.710;2022-11-20T07:48:56;31.45;;;19.15;;
33022;SDS011;19390;51.460;5.710;2022-11-20T07:51:22;30.63;;;19.17;;
33022;SDS011;19390;51.460;5.710;2022-11-20T07:53:50;32.42;;;19.92;;
33022;SDS011;19390;51.460;5.710;2022-11-20T07:56:16;30.00;;;17.83;;
33022;SDS011;19390;51.460;5.710;2022-11-20T07:58:42;30.05;;;18.27;;
33022;SDS011;19390;51.460;5.710;2022-11-20T08:01:08;32.33;;;19.02;;
33022;SDS011;19390;51.460;5.710;2022-11-20T08:03:34;32.80;;;19.27;;
33022;SDS011;19390;51.460;5.710;2022-11-20T08:06:02;31.80;;;19.08;;
33022;SDS011;19390;51.460;5.710;2022-11-20T08:08:29;33.72;;;20.88;;
33022;SDS011;19390;51.460;5.710;2022-11-20T08:10:56;33.95;;;20.08;;
33022;SDS011;19390;51.460;5.710;2022-11-20T08:13:42;32.58;;;19.27;;
33022;SDS011;19390;51.460;5.710;2022-11-20T08:16:26;31.02;;;19.08;;
33022;SDS011;19390;51.460;5.710;2022-11-20T08:18:53;31.40;;;19.45;;
33022;SDS011;19390;51.460;5.710;2022-11-20T08:21:19;34.88;;;20.55;;
33022;SDS011;19390;51.460;5.710;2022-11-20T08:23:44;31.55;;;18.92;;
33022;SDS011;19390;51.460;5.710;2022-11-20T08:26:10;41.85;;;20.90;;
33022;SDS011;19390;51.460;5.710;2022-11-20T08:28:36;32.15;;;19.95;;
33022;SDS011;19390;51.460;5.710;2022-11-20T08:31:02;33.03;;;19.45;;
33022;SDS011;19390;51.460;5.710;2022-11-20T08:33:28;35.75;;;19.20;;
33022;SDS011;19390;51.460;5.710;2022-11-20T08:35:58;32.95;;;19.85;;
33022;SDS011;19390;51.460;5.710;2022-11-20T08:38:25;30.13;;;18.73;;
33022;SDS011;19390;51.460;5.710;2022-11-20T08:40:51;34.47;;;20.38;;
33022;SDS011;19390;51.460;5.710;2022-11-20T08:43:35;34.92;;;20.73;;
33022;SDS011;19390;51.460;5.710;2022-11-20T08:48:31;36.38;;;21.45;;
33022;SDS011;19390;51.460;5.710;2022-11-20T08:50:57;35.65;;;20.30;;
33022;SDS011;19390;51.460;5.710;2022-11-20T08:53:24;35.45;;;21.63;;
33022;SDS011;19390;51.460;5.710;2022-11-20T08:55:50;39.70;;;21.40;;
33022;SDS011;19390;51.460;5.710;2022-11-20T08:58:16;35.88;;;21.10;;
33022;SDS011;19390;51.460;5.710;2022-11-20T09:00:42;35.70;;;22.60;;
33022;SDS011;19390;51.460;5.710;2022-11-20T09:03:08;36.50;;;22.17;;
33022;SDS011;19390;51.460;5.710;2022-11-20T09:05:34;36.63;;;22.95;;
33022;SDS011;19390;51.460;5.710;2022-11-20T09:07:59;38.90;;;22.73;;
33022;SDS011;19390;51.460;5.710;2022-11-20T09:10:27;38.55;;;24.30;;
33022;SDS011;19390;51.460;5.710;2022-11-20T09:12:53;33.58;;;21.10;;
33022;SDS011;19390;51.460;5.710;2022-11-20T09:15:20;41.85;;;23.75;;
33022;SDS011;19390;51.460;5.710;2022-11-20T09:17:58;39.20;;;23.42;;
33022;SDS011;19390;51.460;5.710;2022-11-20T09:20:26;45.47;;;26.88;;
33022;SDS011;19390;51.460;5.710;2022-11-20T09:22:54;43.78;;;25.98;;
33022;SDS011;19390;51.460;5.710;2022-11-20T09:25:20;52.95;;;30.50;;
33022;SDS011;19390;51.460;5.710;2022-11-20T09:27:45;50.85;;;29.58;;
33022;SDS011;19390;51.460;5.710;2022-11-20T09:30:12;60.50;;;32.53;;
33022;SDS011;19390;51.460;5.710;2022-11-20T09:32:39;66.78;;;35.83;;
33022;SDS011;19390;51.460;5.710;2022-11-20T09:35:05;61.30;;;34.38;;
33022;SDS011;19390;51.460;5.710;2022-11-20T09:37:31;70.75;;;38.13;;
33022;SDS011;19390;51.460;5.710;2022-11-20T09:39:57;66.25;;;35.85;;
33022;SDS011;19390;51.460;5.710;2022-11-20T09:56:08;59.58;;;29.27;;
33022;SDS011;19390;51.460;5.710;2022-11-20T09:58:42;63.58;;;30.08;;
33022;SDS011;19390;51.460;5.710;2022-11-20T10:01:13;54.20;;;27.15;;
33022;SDS011;19390;51.460;5.710;2022-11-20T10:06:32;68.25;;;29.63;;
33022;SDS011;19390;51.460;5.710;2022-11-20T10:11:46;74.80;;;32.83;;
33022;SDS011;19390;51.460;5.710;2022-11-20T10:20:02;65.22;;;29.20;;
33022;SDS011;19390;51.460;5.710;2022-11-20T10:25:26;59.17;;;27.48;;
33022;SDS011;19390;51.460;5.710;2022-11-20T10:28:06;61.80;;;29.92;;
33022;SDS011;19390;51.460;5.710;2022-11-20T10:30:37;66.15;;;29.52;;
33022;SDS011;19390;51.460;5.710;2022-11-20T10:33:17;68.07;;;30.25;;
33022;SDS011;19390;51.460;5.710;2022-11-20T10:35:55;59.97;;;29.02;;
33022;SDS011;19390;51.460;5.710;2022-11-20T10:38:39;70.53;;;33.25;;
33022;SDS011;19390;51.460;5.710;2022-11-20T10:44:16;74.93;;;33.88;;
33022;SDS011;19390;51.460;5.710;2022-11-20T10:47:01;74.15;;;34.60;;
33022;SDS011;19390;51.460;5.710;2022-11-20T10:49:30;70.07;;;31.98;;
33022;SDS011;19390;51.460;5.710;2022-11-20T11:02:23;69.00;;;29.38;;
33022;SDS011;19390;51.460;5.710;2022-11-20T11:04:57;67.65;;;29.77;;
33022;SDS011;19390;51.460;5.710;2022-11-20T11:07:36;81.73;;;32.70;;
33022;SDS011;19390;51.460;5.710;2022-11-20T11:12:46;75.53;;;33.03;;
33022;SDS011;19390;51.460;5.710;2022-11-20T11:15:29;75.95;;;30.48;;
33022;SDS011;19390;51.460;5.710;2022-11-20T11:18:22;77.75;;;33.20;;
33022;SDS011;19390;51.460;5.710;2022-11-20T11:20:49;71.30;;;31.55;;
33022;SDS011;19390;51.460;5.710;2022-11-20T11:26:18;68.85;;;33.03;;
33022;SDS011;19390;51.460;5.710;2022-11-20T11:28:58;78.13;;;33.03;;
33022;SDS011;19390;51.460;5.710;2022-11-20T11:31:26;67.22;;;31.17;;
33022;SDS011;19390;51.460;5.710;2022-11-20T11:34:06;71.43;;;32.78;;
33022;SDS011;19390;51.460;5.710;2022-11-20T11:36:33;70.00;;;31.25;;
33022;SDS011;19390;51.460;5.710;2022-11-20T11:39:00;67.10;;;31.35;;
33022;SDS011;19390;51.460;5.710;2022-11-20T11:41:31;65.35;;;31.17;;
33022;SDS011;19390;51.460;5.710;2022-11-20T11:44:03;68.18;;;30.02;;
33022;SDS011;19390;51.460;5.710;2022-11-20T11:47:00;66.20;;;31.88;;
33022;SDS011;19390;51.460;5.710;2022-11-20T11:49:26;68.28;;;32.58;;
33022;SDS011;19390;51.460;5.710;2022-11-20T12:00:31;68.03;;;30.67;;
33022;SDS011;19390;51.460;5.710;2022-11-20T12:16:16;67.55;;;31.95;;
33022;SDS011;19390;51.460;5.710;2022-11-20T12:18:44;67.68;;;32.30;;
33022;SDS011;19390;51.460;5.710;2022-11-20T12:30:12;67.05;;;30.02;;
33022;SDS011;19390;51.460;5.710;2022-11-20T12:35:29;71.50;;;33.72;;
33022;SDS011;19390;51.460;5.710;2022-11-20T12:41:35;67.93;;;32.45;;
33022;SDS011;19390;51.460;5.710;2022-11-20T12:47:20;67.57;;;33.90;;
33022;SDS011;19390;51.460;5.710;2022-11-20T12:52:48;69.63;;;31.00;;
33022;SDS011;19390;51.460;5.710;2022-11-20T13:07:29;65.97;;;31.52;;
33022;SDS011;19390;51.460;5.710;2022-11-20T13:09:57;65.95;;;32.10;;
33022;SDS011;19390;51.460;5.710;2022-11-20T13:17:41;69.82;;;33.22;;
33022;SDS011;19390;51.460;5.710;2022-11-20T13:20:17;66.13;;;32.40;;
33022;SDS011;19390;51.460;5.710;2022-11-20T13:25:21;69.22;;;32.30;;
33022;SDS011;19390;51.460;5.710;2022-11-20T13:27:47;66.07;;;31.63;;
33022;SDS011;19390;51.460;5.710;2022-11-20T13:30:16;66.70;;;32.60;;
33022;SDS011;19390;51.460;5.710;2022-11-20T13:35:32;74.18;;;32.17;;
33022;SDS011;19390;51.460;5.710;2022-11-20T13:38:03;71.45;;;34.10;;
33022;SDS011;19390;51.460;5.710;2022-11-20T13:40:31;69.00;;;32.33;;
33022;SDS011;19390;51.460;5.710;2022-11-20T13:43:04;63.92;;;30.65;;
33022;SDS011;19390;51.460;5.710;2022-11-20T13:45:38;71.50;;;32.63;;
33022;SDS011;19390;51.460;5.710;2022-11-20T13:48:04;68.35;;;30.48;;
33022;SDS011;19390;51.460;5.710;2022-11-20T13:53:37;71.75;;;31.77;;
33022;SDS011;19390;51.460;5.710;2022-11-20T14:01:49;70.28;;;32.65;;
33022;SDS011;19390;51.460;5.710;2022-11-20T14:04:15;74.32;;;32.67;;
33022;SDS011;19390;51.460;5.710;2022-11-20T14:06:45;71.57;;;35.10;;
33022;SDS011;19390;51.460;5.710;2022-11-20T14:09:24;74.93;;;34.03;;
33022;SDS011;19390;51.460;5.710;2022-11-20T14:11:52;73.38;;;35.50;;
33022;SDS011;19390;51.460;5.710;2022-11-20T14:14:19;83.97;;;36.55;;
33022;SDS011;19390;51.460;5.710;2022-11-20T14:16:46;70.72;;;34.08;;
33022;SDS011;19390;51.460;5.710;2022-11-20T14:21:49;67.85;;;31.50;;
33022;SDS011;19390;51.460;5.710;2022-11-20T14:24:20;72.45;;;33.33;;
33022;SDS011;19390;51.460;5.710;2022-11-20T14:26:47;64.40;;;31.75;;
33022;SDS011;19390;51.460;5.710;2022-11-20T14:31:41;70.38;;;31.80;;
33022;SDS011;19390;51.460;5.710;2022-11-20T14:34:23;57.50;;;30.52;;
33022;SDS011;19390;51.460;5.710;2022-11-20T14:36:52;65.97;;;30.42;;
33022;SDS011;19390;51.460;5.710;2022-11-20T14:39:50;68.53;;;32.13;;
33022;SDS011;19390;51.460;5.710;2022-11-20T14:42:21;65.78;;;32.47;;
33022;SDS011;19390;51.460;5.710;2022-11-20T14:44:49;66.60;;;32.58;;
33022;SDS011;19390;51.460;5.710;2022-11-20T14:47:19;65.97;;;32.78;;
33022;SDS011;19390;51.460;5.710;2022-11-20T14:49:48;68.10;;;33.88;;
33022;SDS011;19390;51.460;5.710;2022-11-20T14:52:17;70.50;;;33.60;;
33022;SDS011;19390;51.460;5.710;2022-11-20T14:54:48;92.03;;;36.78;;
33022;SDS011;19390;51.460;5.710;2022-11-20T14:57:27;66.22;;;30.55;;
33022;SDS011;19390;51.460;5.710;2022-11-20T15:00:06;81.35;;;33.53;;
33022;SDS011;19390;51.460;5.710;2022-11-20T15:02:43;70.30;;;34.08;;
33022;SDS011;19390;51.460;5.710;2022-11-20T15:05:10;95.30;;;36.97;;
33022;SDS011;19390;51.460;5.710;2022-11-20T15:07:38;72.70;;;34.10;;
33022;SDS011;19390;51.460;5.710;2022-11-20T15:10:12;82.65;;;34.60;;
33022;SDS011;19390;51.460;5.710;2022-11-20T15:12:47;80.13;;;35.72;;
33022;SDS011;19390;51.460;5.710;2022-11-20T15:15:25;77.88;;;35.95;;
33022;SDS011;19390;51.460;5.710;2022-11-20T15:18:00;72.20;;;33.83;;
33022;SDS011;19390;51.460;5.710;2022-11-20T15:20:27;77.32;;;34.58;;
33022;SDS011;19390;51.460;5.710;2022-11-20T15:22:55;84.13;;;36.17;;
33022;SDS011;19390;51.460;5.710;2022-11-20T15:25:20;76.10;;;34.20;;
33022;SDS011;19390;51.460;5.710;2022-11-20T15:27:46;83.50;;;34.72;;
33022;SDS011;19390;51.460;5.710;2022-11-20T15:30:19;102.97;;;38.75;;
33022;SDS011;19390;51.460;5.710;2022-11-20T15:32:46;82.50;;;35.83;;
33022;SDS011;19390;51.460;5.710;2022-11-20T15:35:12;73.22;;;32.97;;
33022;SDS011;19390;51.460;5.710;2022-11-20T15:37:38;77.13;;;34.47;;
33022;SDS011;19390;51.460;5.710;2022-11-20T15:40:05;75.38;;;34.67;;
33022;SDS011;19390;51.460;5.710;2022-11-20T15:42:32;85.97;;;36.97;;
33022;SDS011;19390;51.460;5.710;2022-11-20T15:44:57;78.28;;;33.75;;
33022;SDS011;19390;51.460;5.710;2022-11-20T15:47:27;76.75;;;34.65;;
33022;SDS011;19390;51.460;5.710;2022-11-20T15:50:05;88.22;;;35.60;;
33022;SDS011;19390;51.460;5.710;2022-11-20T15:52:38;80.53;;;34.78;;
33022;SDS011;19390;51.460;5.710;2022-11-20T15:55:07;83.75;;;35.38;;
33022;SDS011;19390;51.460;5.710;2022-11-20T15:57:34;80.15;;;36.20;;
33022;SDS011;19390;51.460;5.710;2022-11-20T16:00:03;80.50;;;37.08;;
33022;SDS011;19390;51.460;5.710;2022-11-20T16:02:29;78.13;;;35.58;;
33022;SDS011;19390;51.460;5.710;2022-11-20T16:04:55;68.45;;;32.75;;
33022;SDS011;19390;51.460;5.710;2022-11-20T16:07:21;82.60;;;34.30;;
33022;SDS011;19390;51.460;5.710;2022-11-20T16:09:46;75.00;;;32.50;;
33022;SDS011;19390;51.460;5.710;2022-11-20T16:12:30;77.03;;;34.10;;
33022;SDS011;19390;51.460;5.710;2022-11-20T16:15:14;90.97;;;36.20;;
33022;SDS011;19390;51.460;5.710;2022-11-20T16:18:07;68.00;;;30.90;;
33022;SDS011;19390;51.460;5.710;2022-11-20T16:20:35;70.45;;;30.52;;
33022;SDS011;19390;51.460;5.710;2022-11-20T16:23:01;82.20;;;34.35;;
33022;SDS011;19390;51.460;5.710;2022-11-20T16:25:27;65.45;;;30.80;;
33022;SDS011;19390;51.460;5.710;2022-11-20T16:27:52;75.55;;;31.33;;
33022;SDS011;19390;51.460;5.710;2022-11-20T16:30:18;86.68;;;33.88;;
33022;SDS011;19390;51.460;5.710;2022-11-20T16:32:44;80.40;;;32.92;;
33022;SDS011;19390;51.460;5.710;2022-11-20T16:35:14;63.60;;;29.33;;
33022;SDS011;19390;51.460;5.710;2022-11-20T16:37:40;58.58;;;28.90;;
33022;SDS011;19390;51.460;5.710;2022-11-20T16:40:07;121.45;;;81.07;;
33022;SDS011;19390;51.460;5.710;2022-11-20T16:42:40;1062.18;;;191.65;;
33022;SDS011;19390;51.460;5.710;2022-11-20T16:45:05;1149.03;;;213.73;;
33022;SDS011;19390;51.460;5.710;2022-11-20T16:47:34;134.57;;;42.53;;
33022;SDS011;19390;51.460;5.710;2022-11-20T16:50:03;64.55;;;31.17;;